createdAt,value
2018-09-05T11:58:11.051Z,28.20
2018-09-05T12:00:41.099Z,28.10
2018-09-05T12:03:11.368Z,28.10
2018-09-05T12:05:41.156Z,28.20
2018-09-05T12:08:11.351Z,28.40
2018-09-05T12:10:41.600Z,28.50
2018-09-05T12:13:12.710Z,28.60
2018-09-05T12:15:42.632Z,28.70
2018-09-05T12:18:13.159Z,28.90
2018-09-05T12:20:42.744Z,29.00
2018-09-05T12:23:12.348Z,29.10
2018-09-05T12:25:42.500Z,29.10
2018-09-05T12:28:12.137Z,29.10
2018-09-05T12:30:41.759Z,29.10
2018-09-05T12:33:11.828Z,29.20
2018-09-05T12:35:41.960Z,29.30
2018-09-05T12:38:12.108Z,29.50
2018-09-05T12:40:43.708Z,29.60
2018-09-05T12:43:14.628Z,29.70
2018-09-05T12:45:45.905Z,29.80
2018-09-05T12:48:16.143Z,29.90
2018-09-05T12:50:46.043Z,30.00
2018-09-05T12:53:16.075Z,30.10
2018-09-05T12:55:46.208Z,30.30
2018-09-05T12:58:16.052Z,30.40
2018-09-05T13:00:45.756Z,30.40
2018-09-05T13:03:15.636Z,30.50
2018-09-05T13:05:45.251Z,30.60
2018-09-05T13:08:16.456Z,30.60
2018-09-05T13:10:47.479Z,30.50
2018-09-05T13:13:17.018Z,30.50
2018-09-05T13:15:46.539Z,30.40
2018-09-05T13:18:16.129Z,30.40
2018-09-05T13:20:45.726Z,30.40
2018-09-05T13:23:15.268Z,30.40
2018-09-05T13:25:45.480Z,30.50
2018-09-05T13:28:15.680Z,30.60
2018-09-05T13:30:45.349Z,30.60
2018-09-05T13:33:15.185Z,30.60
2018-09-05T13:35:45.643Z,30.80
2018-09-05T13:38:16.283Z,30.90
2018-09-05T13:40:46.550Z,31.10
2018-09-05T13:43:16.450Z,31.00
2018-09-05T13:45:46.067Z,31.00
2018-09-05T13:48:16.388Z,30.80
2018-09-05T13:50:47.232Z,30.80
2018-09-05T13:53:17.961Z,30.80
2018-09-05T13:55:48.188Z,30.90
2018-09-05T13:58:18.135Z,30.80
2018-09-05T14:00:48.595Z,30.70
2018-09-05T14:03:19.248Z,30.50
2018-09-05T14:05:49.566Z,30.40
2018-09-05T14:08:20.031Z,30.20
2018-09-05T14:10:50.173Z,30.00
2018-09-05T14:13:20.567Z,29.80
2018-09-05T14:15:50.491Z,29.70
2018-09-05T14:18:20.317Z,29.60
2018-09-05T14:20:50.220Z,29.50
2018-09-05T14:23:20.892Z,29.30
2018-09-05T14:25:50.829Z,29.20
2018-09-05T14:28:21.068Z,29.10
2018-09-05T14:30:50.920Z,29.00
2018-09-05T14:33:21.846Z,29.00
2018-09-05T14:35:52.706Z,29.00
2018-09-05T14:38:23.027Z,28.90
2018-09-05T14:40:53.523Z,28.90
2018-09-05T14:43:23.312Z,28.80
2018-09-05T14:45:58.953Z,28.80
2018-09-05T14:48:33.815Z,28.80
2018-09-05T14:51:06.332Z,28.70
2018-09-05T14:53:36.834Z,28.60
2018-09-05T14:56:09.958Z,28.50
2018-09-05T14:58:43.501Z,28.50
2018-09-05T15:01:13.925Z,28.40
2018-09-05T15:03:44.764Z,28.30
2018-09-05T15:06:14.356Z,28.10
2018-09-05T15:08:50.524Z,27.90
2018-09-05T15:11:24.410Z,27.80
2018-09-05T15:13:54.556Z,27.70
2018-09-05T15:16:25.756Z,27.60
2018-09-05T15:18:59.453Z,27.50
2018-09-05T15:21:36.161Z,27.40
2018-09-05T15:24:08.355Z,27.40
2018-09-05T15:26:42.327Z,27.40
2018-09-05T15:29:16.398Z,27.40
2018-09-05T15:31:49.866Z,27.50
2018-09-05T15:34:26.955Z,27.50
2018-09-05T15:37:01.069Z,27.40
2018-09-05T15:39:38.002Z,27.30
2018-09-05T15:42:14.306Z,27.20
2018-09-05T15:44:47.242Z,27.10
2018-09-05T15:47:19.165Z,27.10
2018-09-05T15:49:52.528Z,27.10
2018-09-05T15:52:22.878Z,27.20
2018-09-05T15:54:54.946Z,27.20
2018-09-05T15:57:25.215Z,27.20
2018-09-05T15:59:55.385Z,27.10
2018-09-05T16:02:25.823Z,27.00
2018-09-05T16:04:55.814Z,26.90
2018-09-05T16:07:26.228Z,26.80
2018-09-05T16:09:56.615Z,26.70
2018-09-05T16:12:29.412Z,26.60
2018-09-05T16:15:03.935Z,26.60
2018-09-05T16:17:36.738Z,26.60
2018-09-05T16:20:09.070Z,26.50
2018-09-05T16:22:40.386Z,26.50
2018-09-05T16:25:13.689Z,26.50
2018-09-05T16:27:44.493Z,26.40
2018-09-05T16:30:14.760Z,26.40
2018-09-05T16:32:44.690Z,26.40
2018-09-05T16:35:14.799Z,26.30
2018-09-05T16:37:44.951Z,26.30
2018-09-05T16:40:14.831Z,26.30
2018-09-05T16:42:44.763Z,26.30
2018-09-05T16:45:15.366Z,26.20
2018-09-05T16:47:45.862Z,26.20
2018-09-05T16:50:16.066Z,26.20
2018-09-05T16:52:46.668Z,26.10
2018-09-05T16:55:17.388Z,26.10
2018-09-05T16:57:48.656Z,26.00
2018-09-05T17:00:19.096Z,26.00
2018-09-05T17:02:52.653Z,25.90
2018-09-05T17:05:24.584Z,25.90
2018-09-05T17:07:56.174Z,25.80
2018-09-05T17:10:27.164Z,25.80
2018-09-05T17:13:05.065Z,25.80
2018-09-05T17:15:35.060Z,25.80
2018-09-05T17:18:04.832Z,25.80
2018-09-05T17:20:37.556Z,25.80
2018-09-05T17:23:10.316Z,25.80
2018-09-05T17:25:40.167Z,25.80
2018-09-05T17:28:09.730Z,25.80
2018-09-05T17:30:39.324Z,25.70
2018-09-05T17:33:09.039Z,25.60
2018-09-05T17:35:38.587Z,25.60
2018-09-05T17:38:09.172Z,25.60
2018-09-05T17:40:39.196Z,25.50
2018-09-05T17:43:08.768Z,25.50
2018-09-05T17:45:38.811Z,25.50
2018-09-05T17:48:09.013Z,25.50
2018-09-05T17:50:42.708Z,25.50
2018-09-05T17:53:13.379Z,25.40
2018-09-05T17:55:42.939Z,25.40
2018-09-05T17:58:13.316Z,25.30
2018-09-05T18:00:43.820Z,25.30
2018-09-05T18:03:13.814Z,25.20
2018-09-05T18:05:44.292Z,25.20
2018-09-05T18:08:13.886Z,25.20
2018-09-05T18:10:43.847Z,25.20
2018-09-05T18:13:13.688Z,25.20
2018-09-05T18:15:43.596Z,25.20
2018-09-05T18:18:13.851Z,25.20
2018-09-05T18:20:43.775Z,25.20
2018-09-05T18:23:13.631Z,25.20
2018-09-05T18:25:43.904Z,25.20
2018-09-05T18:28:14.321Z,25.20
2018-09-05T18:30:45.622Z,25.20
2018-09-05T18:33:20.658Z,25.20
2018-09-05T18:35:56.796Z,25.20
2018-09-05T18:38:28.528Z,25.20
2018-09-05T18:40:59.364Z,25.10
2018-09-05T18:43:29.584Z,25.10
2018-09-05T18:46:00.107Z,25.00
2018-09-05T18:48:29.642Z,25.00
2018-09-05T18:50:59.345Z,25.00
2018-09-05T18:53:29.471Z,25.10
2018-09-05T18:55:59.511Z,25.00
2018-09-05T18:58:29.876Z,25.10
2018-09-05T19:01:03.915Z,25.10
2018-09-05T19:03:35.088Z,25.00
2018-09-05T19:06:06.228Z,25.00
2018-09-05T19:08:36.598Z,25.00
2018-09-05T19:11:07.423Z,25.00
2018-09-05T19:13:38.427Z,25.00
2018-09-05T19:16:08.619Z,25.00
2018-09-05T19:18:38.156Z,25.00
2018-09-05T19:21:07.715Z,25.00
2018-09-05T19:23:37.208Z,25.00
2018-09-05T19:26:06.973Z,25.00
2018-09-05T19:28:38.988Z,25.00
2018-09-05T19:31:08.590Z,25.00
2018-09-05T19:33:38.255Z,25.00
2018-09-05T19:36:07.880Z,25.00
2018-09-05T19:38:37.380Z,25.00
2018-09-05T19:41:07.029Z,25.00
2018-09-05T19:43:36.860Z,25.00
2018-09-05T19:46:06.483Z,25.00
2018-09-05T19:48:36.020Z,24.90
2018-09-05T19:51:05.948Z,25.00
2018-09-05T19:53:35.607Z,24.90
2018-09-05T19:56:05.100Z,24.90
2018-09-05T19:58:34.627Z,24.90
2018-09-05T20:01:04.163Z,24.90
2018-09-05T20:03:33.712Z,24.80
2018-09-05T20:06:03.231Z,24.70
2018-09-05T20:08:32.757Z,24.60
2018-09-05T20:11:17.052Z,24.60
2018-09-05T20:13:53.123Z,24.50
2018-09-05T20:16:24.614Z,24.50
2018-09-05T20:18:54.873Z,24.50
2018-09-05T20:21:25.056Z,24.50
2018-09-05T20:23:56.216Z,24.60
2018-09-05T20:26:28.532Z,24.60
2018-09-05T20:29:01.170Z,24.60
2018-09-05T20:31:31.246Z,24.60
2018-09-05T20:34:01.589Z,24.60
2018-09-05T20:36:32.279Z,24.60
2018-09-05T20:39:03.522Z,24.60
2018-09-05T20:41:35.317Z,24.70
2018-09-05T20:44:06.655Z,24.60
2018-09-05T20:46:38.215Z,24.60
2018-09-05T20:49:10.537Z,24.60
2018-09-05T20:51:42.438Z,24.60
2018-09-05T20:54:16.536Z,24.60
2018-09-05T20:56:46.130Z,24.60
2018-09-05T20:59:15.684Z,24.60
2018-09-05T21:01:45.244Z,24.60
2018-09-05T21:04:14.924Z,24.60
2018-09-05T21:06:45.053Z,24.60
2018-09-05T21:09:15.167Z,24.60
2018-09-05T21:11:47.380Z,24.60
2018-09-05T21:14:18.028Z,24.60
2018-09-05T21:16:47.730Z,24.60
2018-09-05T21:19:17.420Z,24.60
2018-09-05T21:21:47.063Z,24.60
2018-09-05T21:24:16.867Z,24.60
2018-09-05T21:26:46.688Z,24.60
2018-09-05T21:29:17.043Z,24.50
2018-09-05T21:31:48.547Z,24.50
2018-09-05T21:34:18.347Z,24.50
2018-09-05T21:36:48.864Z,24.50
2018-09-05T21:39:18.780Z,24.50
2018-09-05T21:41:48.511Z,24.40
2018-09-05T21:44:19.129Z,24.40
2018-09-05T21:46:48.719Z,24.40
2018-09-05T21:49:18.251Z,24.40
2018-09-05T21:51:54.474Z,24.40
2018-09-05T21:54:25.712Z,24.40
2018-09-05T21:56:55.626Z,24.40
2018-09-05T21:59:25.358Z,24.40
2018-09-05T22:01:56.546Z,24.40
2018-09-05T22:04:31.027Z,24.40
2018-09-05T22:07:03.203Z,24.30
2018-09-05T22:09:33.062Z,24.30
2018-09-05T22:12:08.603Z,24.30
2018-09-05T22:14:46.044Z,24.30
2018-09-05T22:17:16.399Z,24.20
2018-09-05T22:19:49.375Z,24.30
2018-09-05T22:22:24.321Z,24.20
2018-09-05T22:24:55.160Z,24.20
2018-09-05T22:27:25.493Z,24.20
2018-09-05T22:29:55.199Z,24.20
2018-09-05T22:32:25.592Z,24.20
2018-09-05T22:34:55.783Z,24.10
2018-09-05T22:37:28.607Z,24.10
2018-09-05T22:39:58.403Z,24.00
2018-09-05T22:42:28.684Z,23.90
2018-09-05T22:45:08.780Z,23.90
2018-09-05T22:47:53.066Z,23.90
2018-09-05T22:52:40.048Z,23.80
2018-09-05T22:55:32.522Z,23.80
2018-09-05T22:58:18.337Z,23.80
2018-09-05T23:00:58.925Z,23.80
2018-09-05T23:03:39.646Z,23.80
2018-09-05T23:06:25.160Z,23.70
2018-09-05T23:08:54.708Z,23.80
2018-09-05T23:11:52.700Z,23.80
2018-09-05T23:14:42.821Z,23.80
2018-09-05T23:17:23.268Z,23.70
2018-09-05T23:22:01.657Z,23.70
2018-09-05T23:24:31.204Z,23.70
2018-09-05T23:27:00.740Z,23.70
2018-09-05T23:29:30.321Z,23.70
2018-09-05T23:31:59.900Z,23.70
2018-09-05T23:34:29.392Z,23.60
2018-09-05T23:36:58.945Z,23.60
2018-09-05T23:39:28.456Z,23.60
2018-09-05T23:41:57.948Z,23.70
2018-09-05T23:44:27.481Z,23.60
2018-09-05T23:46:57.093Z,23.60
2018-09-05T23:49:27.789Z,23.60
2018-09-05T23:51:57.300Z,23.60
2018-09-05T23:54:26.808Z,23.60
2018-09-05T23:56:56.440Z,23.60
2018-09-05T23:59:25.944Z,23.60
